CAD weather

Wexford County Airport
Cadillac, Michigan, United States

Public forecast

Using degrees Fahrenheit for public forecast. Weather courtesy of forecast.io.

Current aviation weather report (METAR) for Wexford County Airport

Retrieved 2019/10/18 08:38 UTC (0 seconds ago):

KCAD 180838Z AUTO 00000KT 10SM CLR M01/M03 A3003 RMK AO2 T10181031

Closest aviation forecast (TAF) to Wexford County Airport

Closest forecast is Cherry Capital Airport, 28.8 nm (53.4 km) NNW. Retrieved 2019/10/18 06:30 UTC (2 hours ago):

TAF KTVC 180527Z 1806/1906 VRB03KT P6SM SCT035 FM181400 VRB03KT P6SM SCT200 FM181800 18005KT P6SM SCT250 FM190200 16006KT P6SM FEW250